Time;durP1;ratioP1;P1;durP2;ratioP2;P2;SDS_P1;SDS_P2;PMS_P1;PMS_P2;Temp;Humidity;BMP_temperature;BMP_pressure;BME280_temperature;BME280_humidity;BME280_pressure;Samples;Min_cycle;Max_cycle;Signal;HPM_P1;HPM_P2
2022/01/10 07:59:21;;;;;;;38.70;23.95;;;;;;;1.87;90.14;101756.56;5285391;27;20401;-71
2022/01/10 08:01:53;;;;;;;32.63;22.95;;;;;;;1.92;90.17;101765.00;5286547;28;20028;-71
2022/01/10 08:04:24;;;;;;;34.63;23.05;;;;;;;2.01;90.84;101763.72;5292593;28;20534;-71
2022/01/10 08:06:55;;;;;;;37.85;23.63;;;;;;;2.07;90.16;101771.09;5277331;28;20300;-73
2022/01/10 08:09:26;;;;;;;34.15;23.48;;;;;;;2.13;89.49;101778.47;5285145;28;20020;-73
2022/01/10 08:12:00;;;;;;;30.58;23.20;;;;;;;2.17;89.65;101784.34;5290580;28;20025;-73
2022/01/10 08:14:32;;;;;;;32.58;21.20;;;;;;;2.23;88.95;101788.16;5294130;28;20059;-73
2022/01/10 08:17:04;;;;;;;30.85;20.13;;;;;;;2.27;88.51;101789.38;5283203;28;20487;-73
2022/01/10 08:19:35;;;;;;;30.90;20.33;;;;;;;2.26;88.30;101793.19;5269158;28;20029;-73
2022/01/10 08:22:07;;;;;;;27.73;20.27;;;;;;;2.21;88.21;101799.28;5283443;28;20153;-72
2022/01/10 08:24:38;;;;;;;31.60;21.60;;;;;;;2.11;88.86;101807.09;5279512;28;20025;-73
2022/01/10 08:27:09;;;;;;;33.72;20.27;;;;;;;2.20;89.44;101815.91;5295056;28;20024;-73
2022/01/10 08:29:42;;;;;;;30.52;20.80;;;;;;;2.08;89.23;101810.25;5275512;28;20091;-73
2022/01/10 08:32:14;;;;;;;30.38;20.05;;;;;;;2.23;89.14;101823.72;5263502;28;20029;-73
2022/01/10 08:34:45;;;;;;;28.33;18.67;;;;;;;2.31;88.39;101834.47;5292202;28;20613;-73
2022/01/10 08:37:16;;;;;;;29.48;19.85;;;;;;;2.38;88.48;101838.06;5283479;28;20111;-72
2022/01/10 08:39:49;;;;;;;29.23;19.60;;;;;;;2.44;88.40;101842.66;5291522;28;20566;-72
2022/01/10 08:42:22;;;;;;;28.75;19.27;;;;;;;2.44;87.46;101845.41;5274039;28;20029;-72
2022/01/10 08:44:54;;;;;;;29.50;20.05;;;;;;;2.48;87.44;101862.25;5288449;28;20021;-73
2022/01/10 08:47:27;;;;;;;26.27;19.15;;;;;;;2.49;87.20;101863.94;5273049;28;20077;-72
2022/01/10 08:49:58;;;;;;;28.80;19.08;;;;;;;2.48;87.17;101865.84;5278389;28;20531;-72
2022/01/10 08:52:30;;;;;;;28.65;19.83;;;;;;;2.51;87.09;101873.63;5282503;28;20163;-73
2022/01/10 08:55:01;;;;;;;24.73;18.23;;;;;;;2.54;87.04;101878.69;5292309;28;20023;-73
2022/01/10 08:57:32;;;;;;;31.25;23.63;;;;;;;2.33;87.08;101887.13;5277947;28;20040;-72
2022/01/10 09:00:08;;;;;;;28.08;18.92;;;;;;;2.46;86.57;101892.59;5279530;28;20033;-73
2022/01/10 09:02:39;;;;;;;23.65;17.58;;;;;;;2.38;86.76;101895.56;5288858;28;20421;-71
2022/01/10 09:05:11;;;;;;;23.35;17.40;;;;;;;2.45;86.52;101901.00;5291053;28;20059;-71
2022/01/10 09:07:42;;;;;;;25.48;17.60;;;;;;;2.54;87.15;101902.50;5280562;28;20532;-72
2022/01/10 09:10:14;;;;;;;24.50;18.58;;;;;;;2.54;86.16;101899.75;5279191;28;20028;-72
2022/01/10 09:12:48;;;;;;;23.17;18.92;;;;;;;2.57;86.62;101905.66;5259750;28;20021;-72
2022/01/10 09:15:19;;;;;;;24.02;17.90;;;;;;;2.59;85.89;101903.53;5267055;28;20019;-68
2022/01/10 09:17:50;;;;;;;27.88;17.30;;;;;;;2.64;86.31;101918.50;5267069;28;20016;-77
2022/01/10 09:20:22;;;;;;;26.02;18.02;;;;;;;2.56;86.21;101920.41;5264931;28;20029;-77
2022/01/10 09:22:53;;;;;;;26.15;18.55;;;;;;;2.57;86.92;101916.59;5261385;28;20047;-77
2022/01/10 09:25:24;;;;;;;24.38;17.90;;;;;;;2.55;86.36;101924.19;5254015;28;20079;-77
2022/01/10 09:27:56;;;;;;;28.77;19.92;;;;;;;2.60;86.46;101932.59;5262930;28;20063;-76
2022/01/10 09:30:27;;;;;;;26.38;19.45;;;;;;;2.63;85.95;101925.03;5279101;28;20482;-77
2022/01/10 09:32:58;;;;;;;26.38;21.13;;;;;;;2.64;86.02;101933.06;5255074;28;20373;-76
2022/01/10 09:35:30;;;;;;;24.40;18.20;;;;;;;2.67;85.50;101934.53;5264826;28;20040;-77
2022/01/10 09:38:01;;;;;;;23.70;19.95;;;;;;;2.65;85.42;101936.63;5269708;28;20025;-77
2022/01/10 09:40:33;;;;;;;23.23;17.85;;;;;;;2.58;84.83;101929.25;5266990;28;20032;-77
2022/01/10 09:43:04;;;;;;;25.08;17.63;;;;;;;2.64;85.13;101932.22;5278237;28;20018;-76
2022/01/10 09:45:36;;;;;;;22.60;17.75;;;;;;;2.64;85.44;101944.00;5253052;28;20067;-77
2022/01/10 09:48:07;;;;;;;22.52;16.52;;;;;;;2.60;84.94;101949.03;5267524;28;20017;-78
2022/01/10 09:50:39;;;;;;;25.55;18.10;;;;;;;2.59;84.96;101952.00;5258102;28;20017;-77
2022/01/10 09:53:12;;;;;;;24.02;16.17;;;;;;;2.67;84.73;101953.69;5251113;28;20012;-77
2022/01/10 09:55:43;;;;;;;22.70;16.88;;;;;;;2.70;84.71;101953.28;5270405;28;20017;-77
2022/01/10 09:58:15;;;;;;;20.02;14.82;;;;;;;2.73;85.74;101959.16;5243523;28;20053;-81
2022/01/10 10:00:46;;;;;;;21.42;16.90;;;;;;;2.69;84.66;101957.91;5244569;28;20029;-78
2022/01/10 10:03:20;;;;;;;20.75;16.13;;;;;;;2.76;84.87;101968.84;5280046;28;20025;-78
2022/01/10 10:05:53;;;;;;;22.83;15.43;;;;;;;2.89;85.09;101974.34;5259050;28;20034;-78
2022/01/10 10:08:26;;;;;;;19.45;15.35;;;;;;;2.91;84.03;101979.59;5274530;28;20424;-78
2022/01/10 10:10:59;;;;;;;21.75;15.13;;;;;;;2.89;84.16;101989.94;5267564;28;20052;-78
2022/01/10 10:13:30;;;;;;;18.98;14.70;;;;;;;2.93;83.70;101993.94;5279083;28;20017;-79
2022/01/10 10:16:01;;;;;;;19.92;15.30;;;;;;;2.97;83.70;102004.28;5274042;28;20123;-79
2022/01/10 10:18:33;;;;;;;22.45;15.93;;;;;;;2.99;83.94;102013.16;5269422;28;20032;-78
2022/01/10 10:21:10;;;;;;;20.45;14.60;;;;;;;2.99;84.46;102017.75;5279529;28;20025;-78
2022/01/10 10:23:46;;;;;;;20.38;14.38;;;;;;;3.05;84.18;102022.41;5269380;28;20111;-78
2022/01/10 10:26:21;;;;;;;19.92;14.65;;;;;;;3.13;84.44;102026.84;5265545;28;20029;-77
2022/01/10 10:28:54;;;;;;;19.83;13.90;;;;;;;3.06;84.34;102046.03;5268606;28;20053;-78
2022/01/10 10:31:31;;;;;;;20.13;14.23;;;;;;;3.05;84.81;102042.44;5278919;28;20294;-78
2022/01/10 10:34:04;;;;;;;22.15;16.25;;;;;;;3.04;84.08;102040.75;5273608;28;20123;-77
2022/01/10 10:36:36;;;;;;;21.00;17.27;;;;;;;3.05;84.57;102036.97;5270004;28;20583;-78
2022/01/10 10:39:10;;;;;;;22.17;17.52;;;;;;;3.18;84.32;102048.97;5279276;28;20342;-77
2022/01/10 10:41:42;;;;;;;21.33;15.52;;;;;;;3.16;83.67;102049.19;5263807;28;20070;-78
2022/01/10 10:44:13;;;;;;;21.40;15.10;;;;;;;3.16;83.90;102056.56;5267024;28;20411;-78
2022/01/10 10:46:44;;;;;;;21.77;15.50;;;;;;;3.25;84.23;102052.56;5279830;28;20105;-78
2022/01/10 10:49:19;;;;;;;20.98;15.35;;;;;;;3.34;84.83;102054.03;5268293;28;20025;-79
2022/01/10 10:51:51;;;;;;;23.48;16.35;;;;;;;3.27;84.17;102061.41;5276450;28;20413;-79
2022/01/10 10:54:23;;;;;;;20.83;15.25;;;;;;;3.41;84.97;102049.38;5269596;28;20427;-78
2022/01/10 10:56:55;;;;;;;20.88;15.95;;;;;;;3.42;84.77;102059.28;5265978;28;20441;-77
2022/01/10 10:59:30;;;;;;;22.73;15.60;;;;;;;3.50;84.66;102058.22;5263915;28;20108;-77
2022/01/10 11:02:02;;;;;;;21.27;15.87;;;;;;;3.54;84.85;102054.00;5273883;28;20024;-79
2022/01/10 11:04:34;;;;;;;24.95;17.42;;;;;;;3.62;85.03;102059.25;5255036;28;20848;-79
2022/01/10 11:07:06;;;;;;;22.88;16.52;;;;;;;3.61;84.52;102064.97;5255404;28;20033;-79
2022/01/10 11:09:37;;;;;;;22.80;16.20;;;;;;;3.64;84.26;102075.53;5266605;28;20028;-80
2022/01/10 11:12:09;;;;;;;26.02;17.95;;;;;;;3.70;84.26;102077.41;5272559;28;20109;-80
2022/01/10 11:14:41;;;;;;;25.80;15.93;;;;;;;3.73;84.27;102074.22;5251565;28;20068;-76
2022/01/10 11:17:22;;;;;;;21.85;16.17;;;;;;;3.85;84.75;102080.75;5277998;28;20033;-77
2022/01/10 11:20:13;;;;;;;21.02;15.43;;;;;;;3.90;84.95;102088.34;5267082;28;20016;-77
2022/01/10 11:22:54;;;;;;;21.85;16.05;;;;;;;3.89;84.91;102092.16;5264753;28;20024;-76
2022/01/10 11:25:32;;;;;;;19.33;15.48;;;;;;;3.93;84.47;102102.47;5254635;28;20127;-77
2022/01/10 11:28:09;;;;;;;23.25;16.95;;;;;;;4.00;84.94;102107.13;5273198;28;20109;-73
2022/01/10 11:30:44;;;;;;;23.40;16.63;;;;;;;4.00;85.24;102104.38;5263189;28;20099;-77
2022/01/10 11:33:26;;;;;;;22.08;14.40;;;;;;;4.06;83.90;102107.06;5261753;28;20024;-77
2022/01/10 11:36:04;;;;;;;23.80;16.98;;;;;;;4.13;84.25;102107.91;5281918;28;20099;-76
2022/01/10 11:38:37;;;;;;;20.48;13.55;;;;;;;4.15;84.35;102110.44;5267694;28;20107;-77
2022/01/10 11:41:19;;;;;;;23.38;15.50;;;;;;;4.21;84.09;102106.81;5277516;28;20058;-77
2022/01/10 11:44:11;;;;;;;17.50;13.18;;;;;;;4.24;83.58;102109.13;5273598;28;20059;-77
2022/01/10 11:46:49;;;;;;;20.30;13.73;;;;;;;4.33;83.67;102113.34;5269375;28;20024;-77
2022/01/10 11:49:22;;;;;;;20.13;13.95;;;;;;;4.35;83.96;102108.47;5254641;28;20484;-74
2022/01/10 11:51:54;;;;;;;17.73;12.55;;;;;;;4.41;83.57;102111.41;5248668;28;20120;-74
2022/01/10 11:54:34;;;;;;;20.10;11.43;;;;;;;4.50;83.39;102121.06;5266531;28;20108;-76
2022/01/10 11:57:09;;;;;;;17.77;11.73;;;;;;;4.52;83.68;102121.72;5256527;28;20045;-76
2022/01/10 11:59:42;;;;;;;17.73;12.60;;;;;;;4.65;83.02;102123.56;5264936;28;20016;-76
2022/01/10 12:02:20;;;;;;;20.30;12.98;;;;;;;4.67;82.58;102130.50;5247123;28;20036;-78
2022/01/10 12:04:53;;;;;;;17.60;12.93;;;;;;;4.68;82.48;102132.22;5248237;28;20029;-78
2022/01/10 12:07:26;;;;;;;23.08;13.23;;;;;;;4.71;82.59;102130.94;5258537;28;20040;-78
2022/01/10 12:09:58;;;;;;;19.58;12.75;;;;;;;4.76;82.09;102139.38;5272610;28;20032;-78
2022/01/10 12:12:31;;;;;;;18.48;13.65;;;;;;;4.74;81.81;102145.06;5274775;28;20029;-78
2022/01/10 12:15:03;;;;;;;20.00;14.20;;;;;;;4.82;82.16;102149.47;5251771;28;20029;-78
2022/01/10 12:17:36;;;;;;;19.38;14.00;;;;;;;4.82;81.80;102151.38;5275697;28;20049;-77
2022/01/10 12:20:08;;;;;;;20.35;14.02;;;;;;;4.78;81.85;102149.09;5272930;28;20549;-77
2022/01/10 12:22:40;;;;;;;20.67;13.77;;;;;;;4.82;82.10;102159.63;5246425;28;20033;-77
2022/01/10 12:25:11;;;;;;;19.58;13.10;;;;;;;4.82;81.80;102165.13;5273845;28;20024;-78
2022/01/10 12:27:42;;;;;;;18.45;13.43;;;;;;;4.78;81.17;102168.31;5275544;28;20041;-77
2022/01/10 12:30:14;;;;;;;20.85;14.32;;;;;;;4.78;82.12;102165.56;5272544;28;20086;-78
2022/01/10 12:32:46;;;;;;;17.38;14.02;;;;;;;4.68;81.50;102180.81;5276849;28;20029;-79
2022/01/10 12:35:17;;;;;;;23.25;15.82;;;;;;;4.54;81.11;102177.28;5265791;28;20025;-79
2022/01/10 12:37:54;;;;;;;24.35;15.60;;;;;;;4.46;81.37;102185.78;5273028;28;20040;-79
2022/01/10 12:40:31;;;;;;;26.35;17.70;;;;;;;4.29;81.59;102186.22;5255575;28;20037;-79
2022/01/10 12:43:03;;;;;;;23.77;17.27;;;;;;;4.21;82.01;102186.47;5262264;28;20373;-79
2022/01/10 12:45:36;;;;;;;23.55;17.70;;;;;;;4.10;82.07;102195.38;5270939;28;20028;-79
2022/01/10 12:48:11;;;;;;;25.30;17.08;;;;;;;4.09;82.87;102199.16;5286025;28;20023;-77
2022/01/10 12:50:48;;;;;;;24.47;16.73;;;;;;;4.12;83.24;102201.50;5281509;28;20024;-73
2022/01/10 12:53:19;;;;;;;24.98;17.50;;;;;;;4.00;82.84;102200.44;5268525;28;20274;-75
2022/01/10 12:55:50;;;;;;;31.00;19.52;;;;;;;4.04;83.62;102204.44;5265553;28;20025;-74
2022/01/10 12:58:21;;;;;;;25.45;17.05;;;;;;;4.12;84.25;102207.81;5270457;28;20441;-79
2022/01/10 13:00:53;;;;;;;33.47;19.17;;;;;;;3.99;83.93;102209.72;5264895;28;20385;-78
2022/01/10 13:03:25;;;;;;;24.13;17.13;;;;;;;3.97;84.01;102209.97;5267687;28;20032;-78
2022/01/10 13:05:58;;;;;;;22.73;15.88;;;;;;;3.96;84.15;102211.00;5260518;28;20049;-78
2022/01/10 13:08:35;;;;;;;21.38;15.82;;;;;;;3.84;84.01;102216.28;5272044;28;20033;-78
2022/01/10 13:11:19;;;;;;;22.60;15.13;;;;;;;3.90;84.47;102228.31;5266220;28;20055;-76
2022/01/10 13:13:51;;;;;;;27.10;16.48;;;;;;;3.86;83.82;102229.78;5262676;28;20020;-79
2022/01/10 13:16:28;;;;;;;23.63;14.18;;;;;;;3.89;84.18;102230.22;5270086;28;20082;-77
2022/01/10 13:19:03;;;;;;;20.75;14.85;;;;;;;3.92;84.44;102227.06;5256080;28;20113;-76
2022/01/10 13:21:40;;;;;;;21.88;14.63;;;;;;;3.91;83.54;102230.00;5274601;28;20111;-82
2022/01/10 13:24:31;;;;;;;19.55;14.27;;;;;;;3.88;83.35;102235.91;5271414;28;20025;-73
2022/01/10 13:27:08;;;;;;;17.93;13.73;;;;;;;3.82;83.27;102245.00;5260249;28;20416;-74
2022/01/10 13:29:51;;;;;;;24.27;15.73;;;;;;;3.66;83.57;102249.84;5248610;28;20018;-73
2022/01/10 13:32:35;;;;;;;21.95;15.55;;;;;;;3.87;84.40;102261.69;5259681;28;20029;-72
2022/01/10 13:35:07;;;;;;;21.25;14.30;;;;;;;3.87;84.86;102257.03;5280061;28;20384;-72
2022/01/10 13:37:56;;;;;;;20.92;16.30;;;;;;;3.91;84.63;102263.81;5270460;28;20041;-75
2022/01/10 13:40:48;;;;;;;18.00;12.90;;;;;;;3.93;84.29;102271.81;5270387;28;20037;-78
2022/01/10 13:43:22;;;;;;;18.90;12.80;;;;;;;3.87;83.65;102267.19;5280256;28;20036;-78
2022/01/10 13:46:05;;;;;;;17.48;12.52;;;;;;;3.83;83.63;102277.72;5273471;28;20460;-78
2022/01/10 13:48:40;;;;;;;20.67;12.52;;;;;;;3.75;83.69;102275.19;5256236;28;20029;-74
2022/01/10 13:51:15;;;;;;;19.63;14.88;;;;;;;3.72;83.99;102288.47;5245546;28;20027;-77
2022/01/10 13:53:50;;;;;;;21.52;13.80;;;;;;;3.74;84.19;102289.13;5259866;28;20560;-78
2022/01/10 13:56:24;;;;;;;18.23;12.95;;;;;;;3.75;83.88;102297.13;5271696;28;20044;-79
2022/01/10 13:59:06;;;;;;;21.70;14.27;;;;;;;3.62;84.43;102292.47;5263360;28;20140;-79
2022/01/10 14:01:41;;;;;;;20.48;14.20;;;;;;;3.53;84.62;102293.72;5271455;28;20364;-77
2022/01/10 14:04:32;;;;;;;21.15;13.52;;;;;;;3.67;85.22;102306.41;5260545;28;20021;-77
2022/01/10 14:07:09;;;;;;;24.15;16.98;;;;;;;3.47;85.64;102303.59;5273163;28;20055;-77
2022/01/10 14:09:44;;;;;;;24.77;16.63;;;;;;;3.66;85.32;102312.13;5276006;28;20480;-80
2022/01/10 14:12:15;;;;;;;27.40;17.58;;;;;;;3.53;84.93;102312.06;5276180;28;20124;-78
2022/01/10 14:14:53;;;;;;;116.07;83.75;;;;;;;3.72;86.91;102314.03;5268262;28;20099;-78
2022/01/10 14:17:24;;;;;;;39.00;29.23;;;;;;;3.76;87.21;102314.44;5252270;28;20074;-77
2022/01/10 14:19:56;;;;;;;32.65;20.08;;;;;;;3.58;86.34;102317.78;5277073;28;20024;-81
2022/01/10 14:22:27;;;;;;;31.80;21.35;;;;;;;3.64;85.82;102322.44;5257300;28;20025;-80
2022/01/10 14:24:58;;;;;;;38.35;23.63;;;;;;;3.75;86.29;102332.81;5271357;28;20465;-84
2022/01/10 14:27:30;;;;;;;41.20;25.27;;;;;;;3.81;86.01;102328.38;5256172;28;20027;-81
2022/01/10 14:30:01;;;;;;;34.65;23.08;;;;;;;3.75;85.91;102324.56;5265605;28;20083;-84
2022/01/10 14:32:33;;;;;;;41.38;25.15;;;;;;;3.73;86.04;102325.84;5277224;28;20077;-79
2022/01/10 14:35:05;;;;;;;49.65;28.13;;;;;;;3.69;86.03;102337.22;5267672;28;20032;-80
2022/01/10 14:37:36;;;;;;;49.45;27.27;;;;;;;3.83;85.78;102331.75;5260066;28;20120;-77
2022/01/10 14:40:08;;;;;;;34.20;21.30;;;;;;;3.75;85.39;102338.28;5248729;28;20030;-76
2022/01/10 14:42:41;;;;;;;39.10;24.35;;;;;;;3.69;85.07;102339.13;5273016;28;20025;-78
2022/01/10 14:45:13;;;;;;;37.50;22.85;;;;;;;3.65;84.98;102340.59;5266310;28;20092;-77
2022/01/10 14:47:44;;;;;;;39.70;23.92;;;;;;;3.67;85.19;102343.97;5274401;28;20051;-77
2022/01/10 14:50:16;;;;;;;39.05;23.65;;;;;;;3.61;85.00;102351.16;5255597;28;20024;-77
2022/01/10 14:52:48;;;;;;;37.22;22.38;;;;;;;3.54;84.97;102350.28;5278357;28;20032;-76
2022/01/10 14:55:19;;;;;;;36.78;23.10;;;;;;;3.56;85.37;102358.31;5261735;28;20020;-78
2022/01/10 14:57:51;;;;;;;38.35;23.15;;;;;;;3.63;85.62;102361.91;5263612;28;20050;-79
2022/01/10 15:00:22;;;;;;;34.80;23.25;;;;;;;3.61;85.61;102377.75;5262106;28;20040;-77
2022/01/10 15:02:54;;;;;;;35.58;22.40;;;;;;;3.54;85.40;102374.13;5275961;28;20024;-78
2022/01/10 15:05:25;;;;;;;34.25;21.15;;;;;;;3.53;85.36;102380.63;5243031;28;20055;-73
2022/01/10 15:07:57;;;;;;;34.13;21.63;;;;;;;3.55;85.99;102384.88;5252737;28;20443;-79
2022/01/10 15:10:28;;;;;;;35.92;22.05;;;;;;;3.59;86.49;102390.81;5277194;28;20027;-78
2022/01/10 15:13:01;;;;;;;29.75;20.63;;;;;;;3.61;86.34;102395.03;5252465;28;20033;-82
2022/01/10 15:15:33;;;;;;;30.20;20.15;;;;;;;3.52;85.85;102395.44;5269167;28;20021;-81
2022/01/10 15:18:06;;;;;;;28.05;18.70;;;;;;;3.59;85.99;102401.78;5272836;28;20037;-80
2022/01/10 15:20:38;;;;;;;25.05;16.85;;;;;;;3.62;85.82;102407.69;5249831;28;20373;-80
2022/01/10 15:23:12;;;;;;;19.50;14.50;;;;;;;3.63;85.38;102411.28;5279266;28;20354;-81
2022/01/10 15:25:44;;;;;;;18.00;12.95;;;;;;;3.62;85.74;102404.13;5269236;28;20487;-80
2022/01/10 15:28:15;;;;;;;17.50;13.63;;;;;;;3.53;85.07;102414.44;5270494;28;20108;-83
2022/01/10 15:30:46;;;;;;;16.50;12.15;;;;;;;3.57;85.16;102421.19;5254271;28;20025;-82
2022/01/10 15:33:18;;;;;;;17.23;13.15;;;;;;;3.46;85.50;102424.53;5284119;28;20108;-82
2022/01/10 15:35:50;;;;;;;17.23;13.82;;;;;;;3.46;84.95;102421.78;5275523;28;20013;-82
2022/01/10 15:38:24;;;;;;;19.45;13.35;;;;;;;3.46;85.62;102433.59;5277291;28;20063;-82
2022/01/10 15:40:56;;;;;;;19.95;13.10;;;;;;;3.41;85.15;102435.25;5264437;28;20040;-83
2022/01/10 15:43:28;;;;;;;17.27;12.90;;;;;;;3.35;85.87;102434.19;5284217;28;20033;-84
2022/01/10 15:46:02;;;;;;;20.77;15.52;;;;;;;3.43;85.30;102431.25;5264362;28;20037;-82
2022/01/10 15:48:33;;;;;;;19.67;13.25;;;;;;;3.43;86.00;102436.75;5282198;28;20033;-81
2022/01/10 15:51:04;;;;;;;21.70;15.10;;;;;;;3.37;85.89;102448.50;5272923;28;20453;-81
2022/01/10 15:53:36;;;;;;;18.10;14.23;;;;;;;3.33;85.45;102451.88;5277821;28;20020;-81
2022/01/10 15:56:08;;;;;;;16.30;12.98;;;;;;;3.42;86.20;102454.22;5268814;28;20097;-82
2022/01/10 15:58:40;;;;;;;16.40;13.73;;;;;;;3.48;86.11;102460.84;5273230;28;20048;-79
2022/01/10 16:01:13;;;;;;;20.92;16.55;;;;;;;3.48;85.33;102458.09;5280658;28;20059;-81
2022/01/10 16:03:44;;;;;;;14.10;11.43;;;;;;;3.47;85.29;102459.13;5259284;28;20538;-80
2022/01/10 16:06:16;;;;;;;15.55;11.43;;;;;;;3.42;85.09;102473.44;5273706;28;20025;-81
2022/01/10 16:08:47;;;;;;;16.52;11.95;;;;;;;3.42;85.34;102478.09;5292300;28;20012;-81
2022/01/10 16:11:19;;;;;;;15.85;12.00;;;;;;;3.44;85.05;102482.31;5274692;28;20101;-82
2022/01/10 16:13:53;;;;;;;20.92;14.40;;;;;;;3.39;85.41;102487.56;5279693;28;20572;-82
2022/01/10 16:16:25;;;;;;;16.55;12.95;;;;;;;3.38;85.83;102483.13;5283018;28;20021;-83
2022/01/10 16:18:56;;;;;;;19.70;13.45;;;;;;;3.39;86.06;102484.81;5269788;28;20033;-82
2022/01/10 16:21:27;;;;;;;18.20;12.32;;;;;;;3.41;85.83;102492.84;5282107;28;20060;-81
2022/01/10 16:23:58;;;;;;;15.32;12.60;;;;;;;3.38;85.95;102491.38;5274873;28;20020;-82
2022/01/10 16:26:31;;;;;;;17.90;12.57;;;;;;;3.36;85.66;102485.22;5278429;28;20104;-80
2022/01/10 16:29:03;;;;;;;17.83;13.68;;;;;;;3.38;86.07;102494.09;5264543;28;20029;-83
2022/01/10 16:31:34;;;;;;;17.13;12.98;;;;;;;3.44;85.61;102504.25;5280223;28;20024;-82
2022/01/10 16:34:06;;;;;;;18.65;13.73;;;;;;;3.39;85.68;102504.00;5277309;28;20066;-82
2022/01/10 16:36:38;;;;;;;20.27;12.63;;;;;;;3.36;85.85;102512.66;5268163;28;20022;-83
2022/01/10 16:39:10;;;;;;;17.20;13.50;;;;;;;3.37;85.24;102517.06;5262398;28;20041;-82
2022/01/10 16:41:41;;;;;;;17.02;12.32;;;;;;;3.41;85.53;102512.91;5279603;28;20032;-83
2022/01/10 16:44:12;;;;;;;14.82;12.05;;;;;;;3.39;85.05;102527.88;5277582;28;20028;-81
2022/01/10 16:46:44;;;;;;;15.73;12.02;;;;;;;3.30;84.90;102532.66;5271772;28;20029;-82
2022/01/10 16:49:15;;;;;;;15.77;12.80;;;;;;;3.23;84.50;102531.75;5266730;28;20507;-80
2022/01/10 16:51:47;;;;;;;17.73;12.20;;;;;;;3.29;84.76;102536.44;5265492;28;20506;-81
2022/01/10 16:54:18;;;;;;;16.08;12.25;;;;;;;3.16;84.87;102539.09;5250986;28;20469;-78
2022/01/10 16:56:49;;;;;;;17.20;13.35;;;;;;;3.21;85.10;102536.59;5265707;28;20022;-81
2022/01/10 16:59:21;;;;;;;16.30;12.77;;;;;;;3.20;85.22;102540.41;5253140;28;20041;-84
2022/01/10 17:01:52;;;;;;;18.98;14.38;;;;;;;3.21;85.92;102542.06;5273745;28;20451;-85
2022/01/10 17:04:23;;;;;;;20.80;14.95;;;;;;;3.12;85.46;102540.50;5280847;28;20491;-83
2022/01/10 17:06:55;;;;;;;19.17;14.10;;;;;;;3.31;85.95;102541.72;5258962;28;20025;-82
2022/01/10 17:09:26;;;;;;;18.58;14.75;;;;;;;3.30;85.51;102543.63;5282313;28;20025;-82
2022/01/10 17:11:59;;;;;;;19.77;16.40;;;;;;;3.29;85.71;102544.66;5267074;28;20025;-82
2022/01/10 17:14:30;;;;;;;20.15;14.45;;;;;;;3.20;84.89;102556.84;5266421;28;20036;-82
2022/01/10 17:17:02;;;;;;;17.63;13.77;;;;;;;3.24;85.57;102558.13;5280834;28;20028;-82
2022/01/10 17:19:33;;;;;;;20.10;14.25;;;;;;;3.20;84.90;102562.34;5265185;28;20032;-82
2022/01/10 17:22:04;;;;;;;19.98;15.00;;;;;;;3.10;85.71;102568.16;5277802;28;20021;-82
2022/01/10 17:24:36;;;;;;;28.70;18.38;;;;;;;3.07;85.77;102567.69;5279118;28;20173;-82
2022/01/10 17:27:10;;;;;;;17.55;13.88;;;;;;;3.13;85.93;102577.88;5266067;28;20025;-80
2022/01/10 17:29:41;;;;;;;19.90;13.85;;;;;;;3.07;85.25;102573.16;5270805;28;20024;-82
